Time;durP1;ratioP1;P1;durP2;ratioP2;P2;SDS_P1;SDS_P2;PMS_P1;PMS_P2;Temp;Humidity;BMP_temperature;BMP_pressure;BME280_temperature;BME280_humidity;BME280_pressure;Samples;Min_cycle;Max_cycle;Signal;HPM_P1;HPM_P2
2022/07/04 00:01:23;;;;;;;3.20;3.00;;;23.20;89.70;;;;;;5094644;28;20569;-70
2022/07/04 00:03:50;;;;;;;3.90;3.60;;;23.20;89.70;;;;;;5093638;28;20434;-70
2022/07/04 00:06:17;;;;;;;3.70;3.50;;;23.20;90.10;;;;;;5094327;28;20494;-70
2022/07/04 00:08:45;;;;;;;3.83;3.60;;;23.20;90.20;;;;;;5094467;28;20469;-70
2022/07/04 00:11:12;;;;;;;3.67;3.47;;;23.20;90.30;;;;;;5094104;28;21008;-70
2022/07/04 00:13:39;;;;;;;4.40;4.10;;;23.10;90.50;;;;;;5094141;28;20569;-69
2022/07/04 00:16:06;;;;;;;5.20;4.80;;;23.10;90.10;;;;;;5094055;28;20535;-70
2022/07/04 00:18:33;;;;;;;4.50;4.10;;;23.10;90.20;;;;;;5094253;28;20482;-70
2022/07/04 00:20:59;;;;;;;3.73;3.40;;;23.10;90.30;;;;;;5093967;28;20533;-69
2022/07/04 00:23:26;;;;;;;3.60;3.40;;;23.10;90.30;;;;;;5094226;28;20978;-70
2022/07/04 00:25:55;;;;;;;3.80;3.60;;;23.10;90.40;;;;;;5093803;28;20472;-70
2022/07/04 00:28:21;;;;;;;3.57;3.30;;;23.10;90.30;;;;;;5094096;28;20437;-70
2022/07/04 00:30:48;;;;;;;3.77;3.50;;;23.20;90.30;;;;;;5093868;28;20970;-70
2022/07/04 00:33:16;;;;;;;3.83;3.63;;;23.10;90.60;;;;;;5093975;28;20480;-69
2022/07/04 00:35:42;;;;;;;4.53;4.17;;;23.00;90.50;;;;;;5093623;28;20815;-69
2022/07/04 00:38:09;;;;;;;4.53;3.47;;;22.90;90.50;;;;;;5093989;28;20472;-70
2022/07/04 00:40:36;;;;;;;4.03;3.70;;;22.80;90.80;;;;;;5093784;28;20490;-70
2022/07/04 00:43:06;;;;;;;4.00;3.60;;;22.80;91.00;;;;;;5093925;28;20941;-69
2022/07/04 00:45:33;;;;;;;4.40;4.00;;;22.70;91.50;;;;;;5093660;28;20970;-70
2022/07/04 00:48:00;;;;;;;5.47;4.97;;;22.60;91.50;;;;;;5093798;28;20557;-70
2022/07/04 00:50:27;;;;;;;4.20;3.97;;;22.70;91.30;;;;;;5093783;28;20470;-70
2022/07/04 00:52:55;;;;;;;3.97;3.67;;;22.70;91.30;;;;;;5093776;28;20471;-70
2022/07/04 00:55:23;;;;;;;3.80;3.50;;;22.60;91.10;;;;;;5093336;28;20482;-70
2022/07/04 00:57:50;;;;;;;3.70;3.50;;;22.60;91.40;;;;;;5093688;28;20472;-70
2022/07/04 01:00:19;;;;;;;4.47;4.17;;;22.70;91.50;;;;;;5093471;28;20504;-69
2022/07/04 01:02:47;;;;;;;3.60;3.40;;;22.60;91.20;;;;;;5093347;28;20479;-70
2022/07/04 01:05:14;;;;;;;3.67;3.47;;;22.70;91.40;;;;;;5093222;28;20443;-69
2022/07/04 01:07:41;;;;;;;3.80;3.60;;;22.70;91.50;;;;;;5093427;28;20502;-70
2022/07/04 01:10:09;;;;;;;3.60;3.40;;;22.60;91.30;;;;;;5093343;28;20988;-70
2022/07/04 01:12:36;;;;;;;3.90;3.70;;;22.60;91.60;;;;;;5093643;28;20440;-69
2022/07/04 01:15:04;;;;;;;3.97;3.77;;;22.50;91.70;;;;;;5094479;28;20511;-70
2022/07/04 01:17:32;;;;;;;7.57;3.40;;;22.40;91.80;;;;;;5097486;28;20515;-70
2022/07/04 01:19:59;;;;;;;4.83;3.47;;;22.40;92.50;;;;;;5097541;28;20502;-70
2022/07/04 01:22:28;;;;;;;3.83;3.60;;;22.40;92.60;;;;;;5097390;28;20455;-71
2022/07/04 01:24:54;;;;;;;3.87;3.57;;;22.40;91.80;;;;;;5097325;28;20480;-69
2022/07/04 01:27:21;;;;;;;4.00;3.70;;;22.40;91.80;;;;;;5097564;28;20468;-69
2022/07/04 01:29:49;;;;;;;10.20;4.07;;;22.30;92.30;;;;;;5097354;28;20479;-69
2022/07/04 01:32:17;;;;;;;4.07;3.67;;;22.40;91.90;;;;;;5097468;28;20435;-69
2022/07/04 01:34:43;;;;;;;4.07;3.77;;;22.40;92.10;;;;;;5097052;28;21046;-69
2022/07/04 01:37:11;;;;;;;4.47;4.10;;;22.40;91.80;;;;;;5097404;28;20468;-69
2022/07/04 01:39:39;;;;;;;3.83;3.63;;;22.50;91.80;;;;;;5097157;28;20483;-69
2022/07/04 01:42:07;;;;;;;3.87;3.60;;;22.50;91.80;;;;;;5097279;28;20488;-70
2022/07/04 01:44:34;;;;;;;4.00;3.70;;;22.50;91.90;;;;;;5096777;28;20478;-69
2022/07/04 01:47:01;;;;;;;3.77;3.50;;;22.50;92.10;;;;;;5097342;28;20467;-69
2022/07/04 01:49:28;;;;;;;3.63;3.43;;;22.60;92.00;;;;;;5097243;28;20472;-69
2022/07/04 01:51:54;;;;;;;3.83;3.50;;;22.50;91.80;;;;;;5097259;28;20460;-69
2022/07/04 01:54:21;;;;;;;4.20;3.80;;;22.40;91.90;;;;;;5096908;28;20538;-69
2022/07/04 01:56:49;;;;;;;3.80;3.50;;;22.30;92.00;;;;;;5096928;28;20466;-70
2022/07/04 01:59:16;;;;;;;3.90;3.60;;;22.20;92.40;;;;;;5096883;28;20475;-69
2022/07/04 02:01:42;;;;;;;3.80;3.50;;;22.00;92.60;;;;;;5096913;28;20500;-69
2022/07/04 02:04:09;;;;;;;4.30;3.90;;;22.00;92.90;;;;;;5096621;28;20501;-69
2022/07/04 02:06:36;;;;;;;3.90;3.60;;;22.00;93.40;;;;;;5096625;28;20252;-69
2022/07/04 02:09:15;;;;;;;4.00;3.70;;;22.00;93.20;;;;;;5096684;28;20446;-69
2022/07/04 02:14:28;;;;;;;5.60;4.03;;;21.90;93.70;;;;;;5096465;28;20478;-69
2022/07/04 02:16:55;;;;;;;4.00;3.67;;;21.90;93.60;;;;;;5096649;28;20472;-68
2022/07/04 02:19:22;;;;;;;3.90;3.60;;;21.90;93.50;;;;;;5096493;28;20448;-69
2022/07/04 02:21:49;;;;;;;3.83;3.53;;;21.80;93.90;;;;;;5096339;28;20492;-69
2022/07/04 02:24:16;;;;;;;4.00;3.57;;;21.90;93.70;;;;;;5096374;28;20531;-69
2022/07/04 02:26:43;;;;;;;3.77;3.40;;;21.70;93.90;;;;;;5095675;28;20440;-69
2022/07/04 02:29:10;;;;;;;4.07;3.67;;;21.80;94.20;;;;;;5096340;28;20464;-68
2022/07/04 02:31:38;;;;;;;5.73;3.60;;;21.60;94.10;;;;;;5096248;28;20499;-69
2022/07/04 02:34:05;;;;;;;3.60;3.30;;;21.60;94.40;;;;;;5095976;28;20567;-69
2022/07/04 02:36:31;;;;;;;3.70;3.40;;;21.70;94.30;;;;;;5095897;28;20447;-69
2022/07/04 02:38:58;;;;;;;4.00;3.60;;;21.60;94.30;;;;;;5095955;28;20483;-69
2022/07/04 02:41:25;;;;;;;4.20;3.67;;;21.60;94.40;;;;;;5096108;28;20551;-69
2022/07/04 02:43:52;;;;;;;4.63;4.10;;;21.50;94.50;;;;;;5095904;28;20471;-69
2022/07/04 02:46:19;;;;;;;4.00;3.53;;;21.40;95.10;;;;;;5095991;28;20476;-69
2022/07/04 02:48:47;;;;;;;4.43;4.03;;;21.40;94.80;;;;;;5095884;28;20925;-69
2022/07/04 02:51:14;;;;;;;7.80;3.80;;;21.30;94.60;;;;;;5095980;28;20579;-69
2022/07/04 02:53:41;;;;;;;3.60;3.40;;;21.30;95.50;;;;;;5095834;28;20526;-70
2022/07/04 02:56:09;;;;;;;3.67;3.47;;;21.30;95.00;;;;;;5095898;28;20470;-69
2022/07/04 02:58:35;;;;;;;4.20;3.90;;;21.30;95.30;;;;;;5095643;28;20477;-69
2022/07/04 03:01:02;;;;;;;4.13;3.73;;;21.30;95.40;;;;;;5095567;28;20890;-69
2022/07/04 03:03:29;;;;;;;4.37;4.07;;;21.30;95.50;;;;;;5095428;28;20983;-69
2022/07/04 03:05:57;;;;;;;4.83;4.00;;;21.20;95.50;;;;;;5095259;28;20514;-69
2022/07/04 03:08:24;;;;;;;4.67;4.27;;;21.10;96.00;;;;;;5095395;28;20878;-69
2022/07/04 03:10:51;;;;;;;4.30;3.90;;;21.10;96.50;;;;;;5095387;28;20523;-69
2022/07/04 03:13:19;;;;;;;4.50;4.20;;;21.10;96.00;;;;;;5095491;28;20447;-69
2022/07/04 03:15:46;;;;;;;4.07;3.77;;;21.10;96.10;;;;;;5095359;28;20543;-69
2022/07/04 03:18:13;;;;;;;3.80;3.43;;;21.10;95.70;;;;;;5095400;28;20541;-69
2022/07/04 03:20:40;;;;;;;3.97;3.67;;;21.10;95.90;;;;;;5095376;28;20462;-69
2022/07/04 03:23:08;;;;;;;3.80;3.40;;;21.10;96.00;;;;;;5095166;28;20920;-69
2022/07/04 03:25:35;;;;;;;4.13;3.20;;;21.20;96.00;;;;;;5095070;28;20562;-69
2022/07/04 03:28:03;;;;;;;4.20;3.80;;;21.20;96.10;;;;;;5095215;28;20537;-69
2022/07/04 03:30:30;;;;;;;5.80;4.43;;;21.00;96.00;;;;;;5094811;28;20903;-69
2022/07/04 03:32:57;;;;;;;4.40;3.67;;;21.00;96.60;;;;;;5095117;28;20551;-69
2022/07/04 03:35:24;;;;;;;3.73;3.43;;;20.80;96.60;;;;;;5094730;28;21007;-69
2022/07/04 03:37:51;;;;;;;3.50;3.30;;;20.80;97.30;;;;;;5094857;28;20444;-69
2022/07/04 03:40:20;;;;;;;4.13;3.83;;;20.90;97.40;;;;;;5094747;28;20984;-69
2022/07/04 03:42:47;;;;;;;3.40;3.20;;;20.90;97.30;;;;;;5094987;28;20439;-69
2022/07/04 03:45:14;;;;;;;5.00;4.17;;;21.00;97.10;;;;;;5094442;28;20561;-69
2022/07/04 03:47:41;;;;;;;4.17;3.87;;;20.90;97.20;;;;;;5094649;28;20797;-69
2022/07/04 03:50:09;;;;;;;4.43;4.03;;;20.90;96.90;;;;;;5094693;28;20558;-69
2022/07/04 03:52:36;;;;;;;3.70;3.40;;;21.00;97.10;;;;;;5094481;28;20530;-69
2022/07/04 03:55:02;;;;;;;4.30;4.00;;;20.80;96.90;;;;;;5094367;28;20443;-69
2022/07/04 03:57:31;;;;;;;4.67;4.27;;;20.90;97.30;;;;;;5094634;28;20531;-69
2022/07/04 03:59:57;;;;;;;3.90;3.60;;;20.90;97.10;;;;;;5094550;28;20551;-69
2022/07/04 04:02:24;;;;;;;4.13;3.73;;;20.90;97.20;;;;;;5094548;28;20470;-69
2022/07/04 04:07:32;;;;;;;4.40;4.00;;;20.90;97.50;;;;;;5076984;28;20443;-69
2022/07/04 04:09:59;;;;;;;3.97;3.67;;;20.90;97.40;;;;;;5094262;28;20550;-68
2022/07/04 04:12:25;;;;;;;5.83;5.33;;;20.80;97.20;;;;;;5094369;28;20436;-69
2022/07/04 04:14:54;;;;;;;4.70;4.40;;;20.90;97.40;;;;;;5093974;28;20831;-69
2022/07/04 04:17:20;;;;;;;3.80;3.50;;;20.90;97.50;;;;;;5094287;28;20530;-69
2022/07/04 04:19:47;;;;;;;4.00;3.70;;;20.90;97.40;;;;;;5094226;28;20548;-70
2022/07/04 04:22:14;;;;;;;4.47;4.07;;;20.90;97.90;;;;;;5093992;28;21004;-69
2022/07/04 04:24:41;;;;;;;4.00;3.60;;;20.90;97.20;;;;;;5093829;28;20914;-69
2022/07/04 04:27:08;;;;;;;4.50;4.10;;;20.90;97.30;;;;;;5094202;28;20533;-69
2022/07/04 04:29:35;;;;;;;4.40;4.00;;;21.00;97.50;;;;;;5093811;28;21025;-70
2022/07/04 04:32:03;;;;;;;4.50;3.87;;;21.00;97.70;;;;;;5094116;28;20446;-69
2022/07/04 04:34:30;;;;;;;3.77;3.57;;;21.00;97.70;;;;;;5093842;28;20546;-69
2022/07/04 04:36:57;;;;;;;3.37;3.17;;;21.00;97.30;;;;;;5093912;28;20539;-69
2022/07/04 04:39:24;;;;;;;4.67;3.70;;;21.10;97.40;;;;;;5093817;28;20447;-70
2022/07/04 04:41:51;;;;;;;4.33;3.80;;;21.10;97.40;;;;;;5093879;28;21022;-69
2022/07/04 04:44:19;;;;;;;3.77;3.57;;;21.10;97.60;;;;;;5093371;28;20538;-69
2022/07/04 04:46:46;;;;;;;4.00;3.70;;;21.10;97.10;;;;;;5093827;28;20444;-69
2022/07/04 04:49:14;;;;;;;4.40;4.00;;;21.00;97.80;;;;;;5093396;28;20550;-69
2022/07/04 04:51:41;;;;;;;4.53;4.23;;;21.00;97.40;;;;;;5093610;28;20558;-68
2022/07/04 04:54:08;;;;;;;5.17;3.60;;;20.90;97.10;;;;;;5093511;28;20521;-69
2022/07/04 04:56:35;;;;;;;4.77;4.37;;;20.90;97.30;;;;;;5093732;28;20526;-69
2022/07/04 04:59:02;;;;;;;8.50;7.40;;;20.80;97.60;;;;;;5093710;28;20861;-69
2022/07/04 05:01:29;;;;;;;5.60;5.10;;;20.80;97.80;;;;;;5093360;28;20555;-69
2022/07/04 05:03:56;;;;;;;4.43;4.03;;;20.80;98.40;;;;;;5093465;28;20525;-69
2022/07/04 05:06:24;;;;;;;3.60;3.40;;;20.90;97.90;;;;;;5093345;28;20831;-69
2022/07/04 05:08:51;;;;;;;3.93;3.63;;;20.80;97.80;;;;;;5093629;28;20485;-69
2022/07/04 05:11:18;;;;;;;3.70;3.50;;;20.80;97.30;;;;;;5093535;28;20468;-69
2022/07/04 05:13:45;;;;;;;3.70;3.50;;;20.90;97.50;;;;;;5093358;28;20529;-70
2022/07/04 05:16:12;;;;;;;3.70;3.50;;;21.00;97.30;;;;;;5093427;28;20787;-69
2022/07/04 05:18:39;;;;;;;5.90;3.73;;;21.10;97.60;;;;;;5093480;28;20984;-69
2022/07/04 05:21:06;;;;;;;3.87;3.53;;;21.10;98.00;;;;;;5093257;28;21048;-69
2022/07/04 05:23:34;;;;;;;3.43;3.13;;;21.10;97.90;;;;;;5093294;28;20486;-69
2022/07/04 05:26:01;;;;;;;4.07;3.77;;;21.00;98.10;;;;;;5093082;28;20570;-69
2022/07/04 05:28:28;;;;;;;3.93;3.60;;;21.00;98.30;;;;;;5093502;28;20538;-69
2022/07/04 05:30:54;;;;;;;4.30;4.00;;;21.10;98.30;;;;;;5093168;28;20554;-69
2022/07/04 05:33:21;;;;;;;4.80;4.40;;;21.00;98.20;;;;;;5093433;28;20529;-69
2022/07/04 05:35:48;;;;;;;4.63;3.93;;;21.10;97.90;;;;;;5093280;28;20442;-69
2022/07/04 05:38:16;;;;;;;3.97;3.67;;;21.10;97.50;;;;;;5093376;28;20479;-69
2022/07/04 05:40:44;;;;;;;3.80;3.57;;;21.10;97.30;;;;;;5093323;28;20463;-69
2022/07/04 05:43:11;;;;;;;3.67;3.37;;;21.00;96.50;;;;;;5093333;28;20443;-69
2022/07/04 05:45:38;;;;;;;4.13;3.83;;;21.00;97.00;;;;;;5093003;28;20485;-69
2022/07/04 05:48:05;;;;;;;3.57;3.30;;;20.90;97.80;;;;;;5093277;28;20796;-70
2022/07/04 05:50:32;;;;;;;4.10;3.80;;;20.90;97.30;;;;;;5092984;28;20537;-69
2022/07/04 05:52:59;;;;;;;4.03;3.73;;;21.00;97.40;;;;;;5093164;28;20462;-69
2022/07/04 05:55:26;;;;;;;3.63;3.33;;;21.00;98.20;;;;;;5092963;28;20519;-69
2022/07/04 05:57:54;;;;;;;4.37;3.90;;;21.00;98.70;;;;;;5093052;28;20527;-69
2022/07/04 06:00:22;;;;;;;4.10;3.70;;;20.90;97.90;;;;;;5093015;28;20882;-69
2022/07/04 06:02:49;;;;;;;3.83;3.63;;;21.10;97.60;;;;;;5095561;28;20521;-69
2022/07/04 06:05:16;;;;;;;4.33;4.00;;;21.20;97.30;;;;;;5096546;28;20479;-69
2022/07/04 06:07:42;;;;;;;6.60;3.57;;;21.10;96.80;;;;;;5096618;28;20538;-69
2022/07/04 06:10:10;;;;;;;4.20;3.90;;;21.20;97.40;;;;;;5096688;28;20553;-69
2022/07/04 06:12:37;;;;;;;4.40;4.03;;;21.30;96.90;;;;;;5096338;28;20478;-69
2022/07/04 06:15:09;;;;;;;3.57;3.37;;;21.30;97.40;;;;;;5096214;28;20860;-68
2022/07/04 06:17:36;;;;;;;4.03;3.70;;;21.20;96.90;;;;;;5096404;28;20451;-69
2022/07/04 06:20:04;;;;;;;3.90;3.40;;;20.90;97.50;;;;;;5096484;28;20567;-69
2022/07/04 06:22:41;;;;;;;4.27;3.60;;;20.70;98.10;;;;;;5096592;28;20856;-68
2022/07/04 06:25:10;;;;;;;4.00;3.17;;;20.50;97.90;;;;;;5096190;28;20495;-69
2022/07/04 06:27:37;;;;;;;5.40;3.50;;;20.40;98.90;;;;;;5096355;28;20546;-69
2022/07/04 06:30:07;;;;;;;4.47;3.40;;;20.60;99.90;;;;;;5096343;28;20900;-70
2022/07/04 06:32:42;;;;;;;4.00;3.70;;;20.70;99.90;;;;;;5096121;28;20808;-68
2022/07/04 06:37:53;;;;;;;3.90;3.60;;;20.80;99.90;;;;;;5096277;28;20469;-69
2022/07/04 06:40:20;;;;;;;3.73;3.53;;;21.00;99.00;;;;;;5096059;28;20471;-69
2022/07/04 06:42:47;;;;;;;4.67;4.20;;;21.10;98.50;;;;;;5096348;28;20446;-68
2022/07/04 06:45:15;;;;;;;4.60;3.97;;;21.20;98.80;;;;;;5095777;28;20504;-69
2022/07/04 06:47:42;;;;;;;4.03;3.63;;;21.10;98.70;;;;;;5096046;28;20530;-69
2022/07/04 06:50:10;;;;;;;4.50;4.10;;;20.90;98.70;;;;;;5095866;28;20459;-69
2022/07/04 06:52:37;;;;;;;4.50;4.10;;;20.80;98.10;;;;;;5095968;28;20537;-69
2022/07/04 06:55:04;;;;;;;6.57;4.17;;;20.80;98.00;;;;;;5095526;28;20481;-69
2022/07/04 06:57:31;;;;;;;4.83;3.70;;;20.90;98.10;;;;;;5095858;28;20525;-69
2022/07/04 06:59:58;;;;;;;4.67;4.10;;;20.90;98.00;;;;;;5095720;28;20554;-69
2022/07/04 07:02:26;;;;;;;3.73;3.53;;;21.10;98.10;;;;;;5095798;28;20534;-69
2022/07/04 07:04:55;;;;;;;4.80;4.23;;;21.20;97.70;;;;;;5095296;28;20483;-69
2022/07/04 07:07:24;;;;;;;5.30;4.40;;;21.20;97.90;;;;;;5095498;28;20462;-69
2022/07/04 07:09:51;;;;;;;4.17;3.90;;;21.20;98.20;;;;;;5095736;28;20442;-69
2022/07/04 07:12:18;;;;;;;5.33;4.23;;;21.10;98.30;;;;;;5095449;28;20539;-69
2022/07/04 07:14:45;;;;;;;3.80;3.60;;;21.20;98.30;;;;;;5095185;28;20537;-69
2022/07/04 07:17:12;;;;;;;4.23;3.83;;;21.20;98.60;;;;;;5095463;28;20530;-69
2022/07/04 07:19:40;;;;;;;4.57;3.83;;;21.30;98.50;;;;;;5095430;28;20535;-68
2022/07/04 07:22:07;;;;;;;4.20;3.90;;;21.50;98.00;;;;;;5095610;28;20876;-69
2022/07/04 07:24:33;;;;;;;4.40;4.10;;;21.60;98.00;;;;;;5095237;28;20800;-69
2022/07/04 07:27:01;;;;;;;3.97;3.57;;;21.80;96.90;;;;;;5095199;28;20566;-69
2022/07/04 07:29:27;;;;;;;4.90;4.27;;;21.90;97.40;;;;;;5095261;28;20446;-69
2022/07/04 07:31:55;;;;;;;5.03;4.53;;;21.90;97.30;;;;;;5095235;28;20547;-69
2022/07/04 07:34:21;;;;;;;4.37;4.07;;;21.80;97.20;;;;;;5094850;28;20535;-69
2022/07/04 07:36:50;;;;;;;4.73;4.10;;;21.70;97.90;;;;;;5094901;28;20947;-69
2022/07/04 07:39:16;;;;;;;4.67;4.37;;;21.60;97.70;;;;;;5094899;28;21004;-69
2022/07/04 07:41:43;;;;;;;7.87;4.30;;;21.40;98.20;;;;;;5094987;28;20547;-69
2022/07/04 07:44:10;;;;;;;5.50;4.17;;;21.40;98.60;;;;;;5094708;28;20541;-69
2022/07/04 07:46:37;;;;;;;4.87;4.13;;;21.40;98.70;;;;;;5094810;28;20562;-69
2022/07/04 07:49:04;;;;;;;4.03;3.73;;;21.50;98.70;;;;;;5094898;28;20446;-69
2022/07/04 07:51:31;;;;;;;4.77;4.37;;;21.50;99.00;;;;;;5094507;28;20546;-69
2022/07/04 07:54:00;;;;;;;4.20;3.80;;;21.50;98.80;;;;;;5094592;28;20531;-69
2022/07/04 07:56:27;;;;;;;4.50;4.20;;;21.50;98.50;;;;;;5094946;28;21001;-69
2022/07/04 07:58:54;;;;;;;7.10;4.00;;;21.60;99.20;;;;;;5094703;28;20522;-69
2022/07/04 08:01:21;;;;;;;4.30;4.00;;;21.70;99.10;;;;;;5094342;28;20893;-70
2022/07/04 08:06:33;;;;;;;4.73;4.40;;;21.80;98.50;;;;;;5094392;28;20624;-69
2022/07/04 08:09:03;;;;;;;4.30;3.90;;;21.90;98.10;;;;;;5094864;28;20502;-69
2022/07/04 08:11:30;;;;;;;5.37;4.80;;;22.00;98.10;;;;;;5094398;28;20456;-69
2022/07/04 08:13:57;;;;;;;6.63;4.80;;;21.90;97.40;;;;;;5094186;28;20531;-69
2022/07/04 08:16:23;;;;;;;4.47;4.10;;;21.80;98.00;;;;;;5094386;28;20541;-68
2022/07/04 08:18:50;;;;;;;5.67;4.43;;;21.80;98.30;;;;;;5094166;28;20996;-69
2022/07/04 08:21:17;;;;;;;5.57;4.60;;;21.90;98.80;;;;;;5094303;28;20555;-69
2022/07/04 08:23:44;;;;;;;5.20;4.80;;;21.80;98.20;;;;;;5093977;28;20530;-68
2022/07/04 08:26:12;;;;;;;4.97;4.57;;;21.60;97.80;;;;;;5093611;28;20541;-69
2022/07/04 08:28:39;;;;;;;7.90;5.53;;;21.60;98.90;;;;;;5094117;28;20523;-69
2022/07/04 08:31:06;;;;;;;5.63;5.23;;;21.50;99.10;;;;;;5093846;28;21081;-69
2022/07/04 08:33:33;;;;;;;4.30;4.00;;;21.70;99.00;;;;;;5093944;28;20526;-69
2022/07/04 08:36:00;;;;;;;4.80;4.33;;;22.00;98.80;;;;;;5093906;28;20535;-68
2022/07/04 08:38:27;;;;;;;4.83;4.43;;;22.20;98.30;;;;;;5093949;28;20527;-69
2022/07/04 08:41:03;;;;;;;7.97;4.53;;;22.20;98.00;;;;;;5093744;28;20472;-69
2022/07/04 08:43:33;;;;;;;5.07;4.53;;;22.20;99.00;;;;;;5094048;28;20871;-69
2022/07/04 08:46:02;;;;;;;4.53;4.20;;;22.10;98.00;;;;;;5093659;28;20562;-69
2022/07/04 08:48:32;;;;;;;4.17;3.77;;;22.00;97.60;;;;;;5093983;28;20531;-69
2022/07/04 08:51:05;;;;;;;4.23;3.97;;;22.10;99.10;;;;;;5093567;28;20466;-69
2022/07/04 08:53:33;;;;;;;4.50;4.20;;;22.40;98.20;;;;;;5093880;28;20511;-69
2022/07/04 08:58:49;;;;;;;4.43;4.13;;;23.00;97.00;;;;;;5093906;28;20412;-69
2022/07/04 09:01:17;;;;;;;4.70;4.30;;;23.20;95.70;;;;;;5093552;28;20557;-69
2022/07/04 09:03:45;;;;;;;4.63;4.23;;;23.20;95.10;;;;;;5093612;28;20479;-71
2022/07/04 09:06:13;;;;;;;4.67;4.27;;;23.30;96.10;;;;;;5094216;28;20481;-70
2022/07/04 09:08:40;;;;;;;5.13;4.73;;;23.20;95.10;;;;;;5093769;28;20532;-69
2022/07/04 09:11:08;;;;;;;4.73;4.43;;;23.00;95.40;;;;;;5093346;28;21065;-69
2022/07/04 09:13:35;;;;;;;4.50;4.13;;;22.80;96.00;;;;;;5093660;28;20532;-69
2022/07/04 09:16:03;;;;;;;5.00;4.60;;;23.00;96.80;;;;;;5093405;28;20468;-69
2022/07/04 09:18:32;;;;;;;5.40;5.00;;;23.00;95.40;;;;;;5093524;28;20528;-69
2022/07/04 09:21:01;;;;;;;5.30;4.20;;;23.20;95.30;;;;;;5093581;28;20511;-69
2022/07/04 09:23:30;;;;;;;4.67;4.33;;;23.20;94.90;;;;;;5093600;28;20843;-69
2022/07/04 09:26:09;;;;;;;4.50;4.20;;;23.40;94.60;;;;;;5093212;28;20985;-69
2022/07/04 09:28:38;;;;;;;20.13;18.00;;;23.70;96.60;;;;;;5093459;28;21020;-69
2022/07/04 09:31:19;;;;;;;5.87;5.30;;;23.90;95.10;;;;;;5093391;28;20893;-69
2022/07/04 09:33:51;;;;;;;5.57;5.07;;;24.20;94.70;;;;;;5093343;28;20546;-69
2022/07/04 09:36:20;;;;;;;4.30;4.07;;;24.70;93.60;;;;;;5095239;28;20519;-69
2022/07/04 09:39:05;;;;;;;4.47;4.17;;;25.70;91.90;;;;;;5097452;28;20496;-69
2022/07/04 09:41:34;;;;;;;4.80;4.50;;;26.10;90.00;;;;;;5097101;28;20455;-70
2022/07/04 09:44:04;;;;;;;4.63;4.33;;;26.80;88.30;;;;;;5097145;28;20484;-69
2022/07/04 09:46:33;;;;;;;5.53;4.43;;;27.70;85.20;;;;;;5097198;28;20825;-69
2022/07/04 09:49:00;;;;;;;5.47;4.00;;;29.10;78.10;;;;;;5097251;28;20446;-69
2022/07/04 09:51:41;;;;;;;4.93;4.53;;;29.50;74.70;;;;;;5097094;28;20882;-69
2022/07/04 09:54:21;;;;;;;4.73;4.30;;;30.20;69.70;;;;;;5096921;28;20445;-70
2022/07/04 09:56:51;;;;;;;4.80;4.50;;;30.60;66.00;;;;;;5096928;28;20447;-69
2022/07/04 09:59:18;;;;;;;4.17;3.87;;;30.80;63.70;;;;;;5096925;28;20448;-69
2022/07/04 10:01:47;;;;;;;4.30;4.00;;;31.00;64.60;;;;;;5096975;28;20542;-69
2022/07/04 10:04:14;;;;;;;4.37;4.00;;;31.20;61.60;;;;;;5096415;28;20453;-70
2022/07/04 10:06:42;;;;;;;4.13;3.83;;;31.70;59.40;;;;;;5096700;28;20906;-70
2022/07/04 10:09:10;;;;;;;4.10;3.80;;;32.00;59.10;;;;;;5096862;28;20442;-70
2022/07/04 10:11:38;;;;;;;4.13;3.83;;;32.60;58.10;;;;;;5096804;28;20470;-70
2022/07/04 10:14:06;;;;;;;3.90;3.67;;;33.90;57.70;;;;;;5096517;28;20459;-70
2022/07/04 10:16:33;;;;;;;4.70;4.40;;;35.40;54.10;;;;;;5096711;28;20448;-69
2022/07/04 10:19:02;;;;;;;4.00;3.77;;;35.10;49.20;;;;;;5096598;28;20527;-70
2022/07/04 10:21:30;;;;;;;4.10;3.83;;;34.60;48.30;;;;;;5096338;28;20996;-69
2022/07/04 10:23:57;;;;;;;3.90;3.60;;;33.50;49.20;;;;;;5096385;28;20539;-70
2022/07/04 10:26:24;;;;;;;4.10;3.80;;;31.80;51.40;;;;;;5096453;28;20916;-69
2022/07/04 10:28:52;;;;;;;3.93;3.70;;;31.10;53.70;;;;;;5096476;28;20527;-69
2022/07/04 10:31:20;;;;;;;4.70;4.30;;;30.80;54.10;;;;;;5096139;28;20555;-69
2022/07/04 10:33:48;;;;;;;5.40;5.00;;;31.00;55.20;;;;;;5095938;28;20466;-70
2022/07/04 10:36:17;;;;;;;4.17;3.80;;;31.40;56.30;;;;;;5096311;28;20472;-69
2022/07/04 10:38:50;;;;;;;6.00;4.40;;;31.50;55.60;;;;;;5096470;28;20985;-69
2022/07/04 10:41:19;;;;;;;4.43;4.13;;;31.50;54.90;;;;;;5096178;28;20466;-69
2022/07/04 10:44:00;;;;;;;4.70;4.40;;;30.80;55.90;;;;;;5095929;28;20446;-70
2022/07/04 10:46:46;;;;;;;5.00;4.47;;;29.90;57.80;;;;;;5096154;28;20551;-69
2022/07/04 10:49:27;;;;;;;4.67;4.37;;;29.20;58.90;;;;;;5095747;28;20470;-69
2022/07/04 10:52:02;;;;;;;4.37;4.07;;;28.60;60.20;;;;;;5096067;28;20826;-69
2022/07/04 10:54:33;;;;;;;4.60;4.30;;;28.20;61.80;;;;;;5095908;28;20514;-69
2022/07/04 10:57:11;;;;;;;4.67;4.27;;;27.80;63.40;;;;;;5095961;28;20522;-69
2022/07/04 10:59:39;;;;;;;7.00;5.40;;;27.50;64.30;;;;;;5095685;28;20531;-70
2022/07/04 11:02:25;;;;;;;4.40;4.10;;;27.20;66.00;;;;;;5095888;28;20447;-69
2022/07/04 11:04:55;;;;;;;4.70;4.40;;;27.20;67.40;;;;;;5095599;28;20536;-69
2022/07/04 11:07:44;;;;;;;5.17;4.63;;;27.30;67.70;;;;;;5095323;28;20516;-69
2022/07/04 11:10:22;;;;;;;5.00;4.70;;;27.30;67.10;;;;;;5095358;28;21036;-69
2022/07/04 11:13:07;;;;;;;5.07;4.77;;;27.20;68.40;;;;;;5095394;28;20960;-69
2022/07/04 11:16:02;;;;;;;5.63;5.20;;;27.30;68.90;;;;;;5095192;28;20444;-69
2022/07/04 11:18:30;;;;;;;5.00;4.70;;;27.40;67.70;;;;;;5095634;28;20859;-69
2022/07/04 11:20:58;;;;;;;5.30;4.80;;;27.60;69.30;;;;;;5095399;28;20814;-69
2022/07/04 11:23:26;;;;;;;4.70;4.40;;;27.70;67.40;;;;;;5095447;28;20811;-69
2022/07/04 11:25:55;;;;;;;5.13;4.73;;;27.60;67.20;;;;;;5094973;28;20956;-69
2022/07/04 11:28:24;;;;;;;5.37;4.87;;;27.40;67.70;;;;;;5095043;28;20563;-69
2022/07/04 11:30:51;;;;;;;5.40;4.90;;;27.00;70.80;;;;;;5095190;28;20546;-69
2022/07/04 11:33:20;;;;;;;5.40;4.90;;;26.70;70.60;;;;;;5095131;28;20527;-69
2022/07/04 11:36:03;;;;;;;5.20;4.90;;;26.60;71.20;;;;;;5095002;28;20531;-69
2022/07/04 11:38:47;;;;;;;5.57;5.17;;;26.80;69.70;;;;;;5095190;28;20432;-69
2022/07/04 11:46:43;;;;;;;5.43;5.07;;;27.10;68.80;;;;;;5094928;28;20471;-69
2022/07/04 11:49:10;;;;;;;5.20;4.90;;;27.30;71.40;;;;;;5094995;28;20527;-69
2022/07/04 11:51:43;;;;;;;4.67;4.30;;;27.50;68.90;;;;;;5094899;28;20554;-69
2022/07/04 11:54:11;;;;;;;4.87;4.57;;;27.40;68.90;;;;;;5094680;28;20795;-69
2022/07/04 11:56:38;;;;;;;5.17;4.80;;;27.20;69.90;;;;;;5094725;28;20534;-70
2022/07/04 11:59:13;;;;;;;5.27;4.60;;;26.80;70.90;;;;;;5093950;28;20448;-69
2022/07/04 12:01:40;;;;;;;4.87;4.47;;;26.60;72.50;;;;;;5094650;28;20464;-69
2022/07/04 12:04:17;;;;;;;5.30;4.97;;;26.40;71.80;;;;;;5094265;28;20534;-69
2022/07/04 12:06:46;;;;;;;5.20;4.80;;;26.50;72.00;;;;;;5094300;28;20546;-69
2022/07/04 12:09:16;;;;;;;4.67;4.27;;;26.50;71.40;;;;;;5094486;28;20527;-69
2022/07/04 12:11:54;;;;;;;5.10;4.70;;;26.50;72.30;;;;;;5094539;28;20474;-69
2022/07/04 12:14:21;;;;;;;5.07;4.67;;;26.80;71.30;;;;;;5094226;28;20902;-69
2022/07/04 12:16:48;;;;;;;4.80;4.50;;;26.90;70.90;;;;;;5094435;28;20546;-69
2022/07/04 12:19:15;;;;;;;4.93;4.63;;;27.00;71.10;;;;;;5094445;28;20485;-69
2022/07/04 12:21:43;;;;;;;5.33;4.60;;;27.00;70.70;;;;;;5094178;28;20889;-70
2022/07/04 12:24:10;;;;;;;4.83;4.50;;;27.10;70.40;;;;;;5094171;28;20451;-70
2022/07/04 12:26:48;;;;;;;5.13;4.73;;;27.20;71.20;;;;;;5094215;28;20497;-69
2022/07/04 12:29:22;;;;;;;4.67;4.37;;;27.20;70.40;;;;;;5094146;28;20448;-69
2022/07/04 12:31:52;;;;;;;4.63;4.30;;;27.10;69.60;;;;;;5094230;28;20477;-69
2022/07/04 12:34:19;;;;;;;4.30;4.00;;;27.00;69.50;;;;;;5093871;28;20460;-69
2022/07/04 12:36:50;;;;;;;4.60;4.23;;;27.10;68.80;;;;;;5094148;28;20442;-69
2022/07/04 12:39:29;;;;;;;4.50;4.20;;;27.40;71.40;;;;;;5093866;28;20527;-69
2022/07/04 12:42:07;;;;;;;4.20;4.00;;;27.50;68.80;;;;;;5094427;28;20467;-69
2022/07/04 12:44:34;;;;;;;6.00;4.20;;;27.70;68.30;;;;;;5093713;28;20481;-69
2022/07/04 12:47:01;;;;;;;4.33;4.00;;;27.70;68.10;;;;;;5093862;28;20563;-69
2022/07/04 12:49:28;;;;;;;4.30;3.97;;;27.80;67.00;;;;;;5093910;28;20476;-69
2022/07/04 12:52:05;;;;;;;4.30;4.10;;;27.80;66.30;;;;;;5093604;28;20547;-69
2022/07/04 12:54:32;;;;;;;3.90;3.70;;;27.60;67.30;;;;;;5093670;28;20530;-69
2022/07/04 12:57:07;;;;;;;4.67;4.37;;;27.50;66.90;;;;;;5093782;28;20444;-69
2022/07/04 12:59:34;;;;;;;4.63;4.20;;;27.40;67.40;;;;;;5093827;28;20522;-69
2022/07/04 13:02:01;;;;;;;4.53;4.23;;;27.20;68.30;;;;;;5093757;28;20475;-69
2022/07/04 13:04:28;;;;;;;4.90;4.60;;;27.00;67.20;;;;;;5093529;28;20523;-69
2022/07/04 13:06:55;;;;;;;4.27;3.90;;;26.80;68.30;;;;;;5093477;28;20546;-69
2022/07/04 13:09:22;;;;;;;4.50;4.20;;;26.90;68.80;;;;;;5093693;28;20455;-69
2022/07/04 13:14:34;;;;;;;4.17;3.97;;;27.20;70.50;;;;;;5097628;28;21012;-69